sensor_id;sensor_type;location;lat;lon;timestamp;P1;durP1;ratioP1;P2;durP2;ratioP2
54201;SDS011;40108;53.152;5.844;2022-12-08T00:01:02;8.68;;;1.30;;
54201;SDS011;40108;53.152;5.844;2022-12-08T00:03:36;9.80;;;1.02;;
54201;SDS011;40108;53.152;5.844;2022-12-08T00:06:03;10.07;;;1.00;;
54201;SDS011;40108;53.152;5.844;2022-12-08T00:08:48;10.90;;;1.05;;
54201;SDS011;40108;53.152;5.844;2022-12-08T00:11:33;3.70;;;0.52;;
54201;SDS011;40108;53.152;5.844;2022-12-08T00:13:59;6.22;;;0.90;;
54201;SDS011;40108;53.152;5.844;2022-12-08T00:16:25;6.53;;;0.60;;
54201;SDS011;40108;53.152;5.844;2022-12-08T00:18:50;2.63;;;0.35;;
54201;SDS011;40108;53.152;5.844;2022-12-08T00:21:16;3.95;;;0.30;;
54201;SDS011;40108;53.152;5.844;2022-12-08T00:23:42;1.85;;;0.30;;
54201;SDS011;40108;53.152;5.844;2022-12-08T00:26:07;4.32;;;0.60;;
54201;SDS011;40108;53.152;5.844;2022-12-08T00:28:33;5.00;;;0.30;;
54201;SDS011;40108;53.152;5.844;2022-12-08T00:30:59;1.95;;;0.30;;
54201;SDS011;40108;53.152;5.844;2022-12-08T00:35:57;3.72;;;0.30;;
54201;SDS011;40108;53.152;5.844;2022-12-08T00:38:28;6.25;;;0.40;;
54201;SDS011;40108;53.152;5.844;2022-12-08T00:40:54;0.90;;;0.20;;
54201;SDS011;40108;53.152;5.844;2022-12-08T00:43:19;2.53;;;0.35;;
54201;SDS011;40108;53.152;5.844;2022-12-08T00:45:45;5.10;;;0.40;;
54201;SDS011;40108;53.152;5.844;2022-12-08T00:48:11;3.13;;;0.20;;
54201;SDS011;40108;53.152;5.844;2022-12-08T00:50:36;3.95;;;0.40;;
54201;SDS011;40108;53.152;5.844;2022-12-08T00:53:02;0.98;;;0.20;;
54201;SDS011;40108;53.152;5.844;2022-12-08T00:55:28;5.68;;;0.68;;
54201;SDS011;40108;53.152;5.844;2022-12-08T00:57:53;3.33;;;0.60;;
54201;SDS011;40108;53.152;5.844;2022-12-08T01:00:19;4.43;;;0.60;;
54201;SDS011;40108;53.152;5.844;2022-12-08T01:02:45;7.50;;;0.50;;
54201;SDS011;40108;53.152;5.844;2022-12-08T01:05:10;10.13;;;0.70;;
54201;SDS011;40108;53.152;5.844;2022-12-08T01:07:36;13.15;;;1.15;;
54201;SDS011;40108;53.152;5.844;2022-12-08T01:10:02;7.28;;;0.60;;
54201;SDS011;40108;53.152;5.844;2022-12-08T01:12:28;4.82;;;0.47;;
54201;SDS011;40108;53.152;5.844;2022-12-08T01:14:54;4.95;;;0.50;;
54201;SDS011;40108;53.152;5.844;2022-12-08T01:17:20;4.10;;;0.40;;
54201;SDS011;40108;53.152;5.844;2022-12-08T01:19:46;6.97;;;0.50;;
54201;SDS011;40108;53.152;5.844;2022-12-08T01:22:11;5.25;;;0.45;;
54201;SDS011;40108;53.152;5.844;2022-12-08T01:24:37;6.85;;;0.60;;
54201;SDS011;40108;53.152;5.844;2022-12-08T01:27:03;2.85;;;0.20;;
54201;SDS011;40108;53.152;5.844;2022-12-08T01:29:28;2.97;;;0.30;;
54201;SDS011;40108;53.152;5.844;2022-12-08T01:31:54;5.32;;;0.40;;
54201;SDS011;40108;53.152;5.844;2022-12-08T01:34:20;3.55;;;0.65;;
54201;SDS011;40108;53.152;5.844;2022-12-08T01:36:45;8.32;;;0.80;;
54201;SDS011;40108;53.152;5.844;2022-12-08T01:39:15;6.35;;;0.73;;
54201;SDS011;40108;53.152;5.844;2022-12-08T01:41:42;5.63;;;0.40;;
54201;SDS011;40108;53.152;5.844;2022-12-08T01:46:35;6.32;;;0.45;;
54201;SDS011;40108;53.152;5.844;2022-12-08T01:49:08;2.20;;;0.30;;
54201;SDS011;40108;53.152;5.844;2022-12-08T01:51:59;6.47;;;0.30;;
54201;SDS011;40108;53.152;5.844;2022-12-08T01:54:35;5.63;;;0.30;;
54201;SDS011;40108;53.152;5.844;2022-12-08T01:57:49;3.63;;;0.38;;
54201;SDS011;40108;53.152;5.844;2022-12-08T02:00:05;5.15;;;0.68;;
54201;SDS011;40108;53.152;5.844;2022-12-08T02:02:59;1.23;;;0.30;;
54201;SDS011;40108;53.152;5.844;2022-12-08T02:05:27;2.70;;;0.30;;
54201;SDS011;40108;53.152;5.844;2022-12-08T02:07:57;4.53;;;0.20;;
54201;SDS011;40108;53.152;5.844;2022-12-08T02:10:30;3.47;;;0.28;;
54201;SDS011;40108;53.152;5.844;2022-12-08T02:12:58;3.63;;;0.40;;
54201;SDS011;40108;53.152;5.844;2022-12-08T02:15:29;4.10;;;0.50;;
54201;SDS011;40108;53.152;5.844;2022-12-08T02:18:00;3.45;;;0.30;;
54201;SDS011;40108;53.152;5.844;2022-12-08T02:20:55;2.53;;;0.20;;
54201;SDS011;40108;53.152;5.844;2022-12-08T02:23:50;1.73;;;0.28;;
54201;SDS011;40108;53.152;5.844;2022-12-08T02:29:44;3.90;;;0.15;;
54201;SDS011;40108;53.152;5.844;2022-12-08T02:32:32;6.68;;;0.40;;
54201;SDS011;40108;53.152;5.844;2022-12-08T02:40:43;0.77;;;0.20;;
54201;SDS011;40108;53.152;5.844;2022-12-08T02:43:13;1.33;;;0.20;;
54201;SDS011;40108;53.152;5.844;2022-12-08T02:46:03;2.17;;;0.10;;
54201;SDS011;40108;53.152;5.844;2022-12-08T02:48:32;1.00;;;0.10;;
54201;SDS011;40108;53.152;5.844;2022-12-08T02:50:58;2.17;;;0.43;;
54201;SDS011;40108;53.152;5.844;2022-12-08T02:53:25;3.33;;;0.20;;
54201;SDS011;40108;53.152;5.844;2022-12-08T02:56:02;3.60;;;0.38;;
54201;SDS011;40108;53.152;5.844;2022-12-08T03:04:01;2.00;;;0.30;;
54201;SDS011;40108;53.152;5.844;2022-12-08T03:07:00;2.78;;;0.43;;
54201;SDS011;40108;53.152;5.844;2022-12-08T03:12:14;2.03;;;0.22;;
54201;SDS011;40108;53.152;5.844;2022-12-08T03:14:51;1.70;;;0.22;;
54201;SDS011;40108;53.152;5.844;2022-12-08T03:17:20;3.92;;;0.43;;
54201;SDS011;40108;53.152;5.844;2022-12-08T03:19:48;4.07;;;0.32;;
54201;SDS011;40108;53.152;5.844;2022-12-08T03:22:15;1.75;;;0.30;;
54201;SDS011;40108;53.152;5.844;2022-12-08T03:24:45;7.40;;;0.32;;
54201;SDS011;40108;53.152;5.844;2022-12-08T03:27:11;3.60;;;0.22;;
54201;SDS011;40108;53.152;5.844;2022-12-08T03:29:40;8.27;;;0.30;;
54201;SDS011;40108;53.152;5.844;2022-12-08T03:34:34;5.20;;;0.60;;
54201;SDS011;40108;53.152;5.844;2022-12-08T03:37:04;1.70;;;0.20;;
54201;SDS011;40108;53.152;5.844;2022-12-08T03:39:30;6.45;;;0.30;;
54201;SDS011;40108;53.152;5.844;2022-12-08T03:41:55;2.05;;;0.20;;
54201;SDS011;40108;53.152;5.844;2022-12-08T03:44:21;3.00;;;0.30;;
54201;SDS011;40108;53.152;5.844;2022-12-08T03:46:47;3.30;;;0.20;;
54201;SDS011;40108;53.152;5.844;2022-12-08T03:49:12;4.70;;;0.30;;
54201;SDS011;40108;53.152;5.844;2022-12-08T03:51:38;3.15;;;0.20;;
54201;SDS011;40108;53.152;5.844;2022-12-08T03:54:04;2.85;;;0.38;;
54201;SDS011;40108;53.152;5.844;2022-12-08T03:56:33;5.28;;;1.88;;
54201;SDS011;40108;53.152;5.844;2022-12-08T03:59:01;5.05;;;0.60;;
54201;SDS011;40108;53.152;5.844;2022-12-08T04:01:27;5.47;;;2.17;;
54201;SDS011;40108;53.152;5.844;2022-12-08T04:03:53;10.73;;;2.95;;
54201;SDS011;40108;53.152;5.844;2022-12-08T04:06:19;2.35;;;0.43;;
54201;SDS011;40108;53.152;5.844;2022-12-08T04:08:46;4.55;;;0.45;;
54201;SDS011;40108;53.152;5.844;2022-12-08T04:11:12;9.52;;;0.60;;
54201;SDS011;40108;53.152;5.844;2022-12-08T04:13:38;4.57;;;0.38;;
54201;SDS011;40108;53.152;5.844;2022-12-08T04:16:04;3.45;;;0.30;;
54201;SDS011;40108;53.152;5.844;2022-12-08T04:18:31;6.40;;;0.22;;
54201;SDS011;40108;53.152;5.844;2022-12-08T04:20:57;2.47;;;0.50;;
54201;SDS011;40108;53.152;5.844;2022-12-08T04:23:23;1.98;;;0.28;;
54201;SDS011;40108;53.152;5.844;2022-12-08T04:25:52;2.47;;;0.47;;
54201;SDS011;40108;53.152;5.844;2022-12-08T04:28:18;1.65;;;0.10;;
54201;SDS011;40108;53.152;5.844;2022-12-08T04:30:44;5.05;;;0.30;;
54201;SDS011;40108;53.152;5.844;2022-12-08T04:33:09;3.80;;;0.30;;
54201;SDS011;40108;53.152;5.844;2022-12-08T04:35:35;1.77;;;0.30;;
54201;SDS011;40108;53.152;5.844;2022-12-08T04:38:01;1.52;;;0.30;;
54201;SDS011;40108;53.152;5.844;2022-12-08T04:40:27;1.13;;;0.40;;
54201;SDS011;40108;53.152;5.844;2022-12-08T04:42:53;8.43;;;0.60;;
54201;SDS011;40108;53.152;5.844;2022-12-08T04:45:18;6.85;;;0.47;;
54201;SDS011;40108;53.152;5.844;2022-12-08T04:47:44;8.48;;;0.70;;
54201;SDS011;40108;53.152;5.844;2022-12-08T04:50:10;6.80;;;1.20;;
54201;SDS011;40108;53.152;5.844;2022-12-08T04:52:35;8.02;;;1.88;;
54201;SDS011;40108;53.152;5.844;2022-12-08T04:55:01;4.68;;;0.70;;
54201;SDS011;40108;53.152;5.844;2022-12-08T04:57:28;1.80;;;0.40;;
54201;SDS011;40108;53.152;5.844;2022-12-08T04:59:54;3.00;;;0.50;;
54201;SDS011;40108;53.152;5.844;2022-12-08T05:02:19;7.13;;;0.65;;
54201;SDS011;40108;53.152;5.844;2022-12-08T05:04:45;4.78;;;0.60;;
54201;SDS011;40108;53.152;5.844;2022-12-08T05:07:11;3.28;;;0.57;;
54201;SDS011;40108;53.152;5.844;2022-12-08T05:09:37;2.15;;;0.47;;
54201;SDS011;40108;53.152;5.844;2022-12-08T05:12:02;3.22;;;0.40;;
54201;SDS011;40108;53.152;5.844;2022-12-08T05:14:28;5.90;;;0.40;;
54201;SDS011;40108;53.152;5.844;2022-12-08T05:16:54;3.53;;;0.45;;
54201;SDS011;40108;53.152;5.844;2022-12-08T05:19:20;10.45;;;1.10;;
54201;SDS011;40108;53.152;5.844;2022-12-08T05:21:45;1.35;;;0.30;;
54201;SDS011;40108;53.152;5.844;2022-12-08T05:24:11;1.75;;;0.30;;
54201;SDS011;40108;53.152;5.844;2022-12-08T05:26:37;3.67;;;0.47;;
54201;SDS011;40108;53.152;5.844;2022-12-08T05:29:02;2.42;;;0.32;;
54201;SDS011;40108;53.152;5.844;2022-12-08T05:31:28;2.15;;;0.30;;
54201;SDS011;40108;53.152;5.844;2022-12-08T05:33:54;6.38;;;0.38;;
54201;SDS011;40108;53.152;5.844;2022-12-08T05:36:19;2.42;;;0.50;;
54201;SDS011;40108;53.152;5.844;2022-12-08T05:38:45;5.85;;;0.70;;
54201;SDS011;40108;53.152;5.844;2022-12-08T05:41:12;8.90;;;0.60;;
54201;SDS011;40108;53.152;5.844;2022-12-08T05:43:40;5.70;;;0.40;;
54201;SDS011;40108;53.152;5.844;2022-12-08T05:46:06;4.32;;;0.60;;
54201;SDS011;40108;53.152;5.844;2022-12-08T05:48:32;1.70;;;0.52;;
54201;SDS011;40108;53.152;5.844;2022-12-08T05:50:58;5.85;;;0.77;;
54201;SDS011;40108;53.152;5.844;2022-12-08T05:53:25;4.82;;;0.65;;
54201;SDS011;40108;53.152;5.844;2022-12-08T05:55:51;5.85;;;0.88;;
54201;SDS011;40108;53.152;5.844;2022-12-08T05:58:17;7.50;;;1.48;;
54201;SDS011;40108;53.152;5.844;2022-12-08T06:00:44;5.53;;;0.52;;
54201;SDS011;40108;53.152;5.844;2022-12-08T06:03:11;5.78;;;0.63;;
54201;SDS011;40108;53.152;5.844;2022-12-08T06:05:37;5.65;;;0.80;;
54201;SDS011;40108;53.152;5.844;2022-12-08T06:08:04;5.78;;;0.88;;
54201;SDS011;40108;53.152;5.844;2022-12-08T06:10:30;5.25;;;0.52;;
54201;SDS011;40108;53.152;5.844;2022-12-08T06:12:56;6.63;;;0.80;;
54201;SDS011;40108;53.152;5.844;2022-12-08T06:15:21;3.35;;;0.68;;
54201;SDS011;40108;53.152;5.844;2022-12-08T06:17:47;10.93;;;5.32;;
54201;SDS011;40108;53.152;5.844;2022-12-08T06:20:13;10.57;;;3.65;;
54201;SDS011;40108;53.152;5.844;2022-12-08T06:22:39;5.10;;;3.50;;
54201;SDS011;40108;53.152;5.844;2022-12-08T06:25:04;12.25;;;3.08;;
54201;SDS011;40108;53.152;5.844;2022-12-08T06:27:31;9.65;;;2.83;;
54201;SDS011;40108;53.152;5.844;2022-12-08T06:29:57;7.05;;;1.60;;
54201;SDS011;40108;53.152;5.844;2022-12-08T06:32:23;11.68;;;1.52;;
54201;SDS011;40108;53.152;5.844;2022-12-08T06:34:49;5.97;;;1.00;;
54201;SDS011;40108;53.152;5.844;2022-12-08T06:37:15;3.28;;;0.70;;
54201;SDS011;40108;53.152;5.844;2022-12-08T06:39:41;6.10;;;0.95;;
54201;SDS011;40108;53.152;5.844;2022-12-08T06:42:06;3.70;;;0.90;;
54201;SDS011;40108;53.152;5.844;2022-12-08T06:44:50;4.13;;;1.23;;
54201;SDS011;40108;53.152;5.844;2022-12-08T06:47:16;6.65;;;1.00;;
54201;SDS011;40108;53.152;5.844;2022-12-08T06:49:42;7.57;;;0.85;;
54201;SDS011;40108;53.152;5.844;2022-12-08T06:52:07;4.53;;;0.80;;
54201;SDS011;40108;53.152;5.844;2022-12-08T06:54:33;9.50;;;0.88;;
54201;SDS011;40108;53.152;5.844;2022-12-08T06:56:59;6.18;;;0.77;;
54201;SDS011;40108;53.152;5.844;2022-12-08T06:59:24;5.18;;;0.90;;
54201;SDS011;40108;53.152;5.844;2022-12-08T07:01:50;6.72;;;0.90;;
54201;SDS011;40108;53.152;5.844;2022-12-08T07:04:16;7.78;;;1.05;;
54201;SDS011;40108;53.152;5.844;2022-12-08T07:06:42;2.97;;;0.70;;
54201;SDS011;40108;53.152;5.844;2022-12-08T07:09:08;5.20;;;0.60;;
54201;SDS011;40108;53.152;5.844;2022-12-08T07:11:34;6.40;;;1.75;;
54201;SDS011;40108;53.152;5.844;2022-12-08T07:14:01;9.38;;;1.27;;
54201;SDS011;40108;53.152;5.844;2022-12-08T07:16:27;5.57;;;0.65;;
54201;SDS011;40108;53.152;5.844;2022-12-08T07:18:53;6.72;;;0.70;;
54201;SDS011;40108;53.152;5.844;2022-12-08T07:21:18;9.13;;;1.20;;
54201;SDS011;40108;53.152;5.844;2022-12-08T07:23:45;9.07;;;0.95;;
54201;SDS011;40108;53.152;5.844;2022-12-08T07:26:11;2.45;;;0.90;;
54201;SDS011;40108;53.152;5.844;2022-12-08T07:28:38;6.20;;;0.90;;
54201;SDS011;40108;53.152;5.844;2022-12-08T07:31:05;6.00;;;0.82;;
54201;SDS011;40108;53.152;5.844;2022-12-08T07:33:32;4.68;;;0.80;;
54201;SDS011;40108;53.152;5.844;2022-12-08T07:36:00;5.80;;;0.90;;
54201;SDS011;40108;53.152;5.844;2022-12-08T07:38:28;7.80;;;1.20;;
54201;SDS011;40108;53.152;5.844;2022-12-08T07:40:54;4.07;;;1.00;;
54201;SDS011;40108;53.152;5.844;2022-12-08T07:43:21;3.78;;;1.10;;
54201;SDS011;40108;53.152;5.844;2022-12-08T07:45:47;4.63;;;1.00;;
54201;SDS011;40108;53.152;5.844;2022-12-08T07:48:14;4.65;;;1.23;;
54201;SDS011;40108;53.152;5.844;2022-12-08T07:50:40;8.90;;;1.65;;
54201;SDS011;40108;53.152;5.844;2022-12-08T07:53:05;3.70;;;1.60;;
54201;SDS011;40108;53.152;5.844;2022-12-08T07:55:31;4.10;;;1.60;;
54201;SDS011;40108;53.152;5.844;2022-12-08T07:57:57;7.07;;;1.60;;
54201;SDS011;40108;53.152;5.844;2022-12-08T08:00:23;8.43;;;1.70;;
54201;SDS011;40108;53.152;5.844;2022-12-08T08:02:49;4.78;;;1.40;;
54201;SDS011;40108;53.152;5.844;2022-12-08T08:05:14;5.68;;;1.48;;
54201;SDS011;40108;53.152;5.844;2022-12-08T08:07:40;10.77;;;1.92;;
54201;SDS011;40108;53.152;5.844;2022-12-08T08:10:08;6.75;;;1.30;;
54201;SDS011;40108;53.152;5.844;2022-12-08T08:12:35;5.60;;;1.90;;
54201;SDS011;40108;53.152;5.844;2022-12-08T08:15:02;9.52;;;1.48;;
54201;SDS011;40108;53.152;5.844;2022-12-08T08:17:31;8.15;;;1.23;;
54201;SDS011;40108;53.152;5.844;2022-12-08T08:19:58;5.72;;;1.02;;
54201;SDS011;40108;53.152;5.844;2022-12-08T08:22:24;7.65;;;1.63;;
54201;SDS011;40108;53.152;5.844;2022-12-08T08:24:50;5.82;;;1.50;;
54201;SDS011;40108;53.152;5.844;2022-12-08T08:27:17;6.03;;;1.48;;
54201;SDS011;40108;53.152;5.844;2022-12-08T08:29:42;9.25;;;1.33;;
54201;SDS011;40108;53.152;5.844;2022-12-08T08:32:08;8.80;;;1.33;;
54201;SDS011;40108;53.152;5.844;2022-12-08T08:34:34;13.05;;;1.77;;
54201;SDS011;40108;53.152;5.844;2022-12-08T08:37:00;8.88;;;1.50;;
54201;SDS011;40108;53.152;5.844;2022-12-08T08:39:25;9.75;;;2.00;;
54201;SDS011;40108;53.152;5.844;2022-12-08T08:41:51;9.63;;;1.50;;
54201;SDS011;40108;53.152;5.844;2022-12-08T08:44:17;10.85;;;1.48;;
54201;SDS011;40108;53.152;5.844;2022-12-08T08:46:43;6.18;;;1.40;;
54201;SDS011;40108;53.152;5.844;2022-12-08T08:49:08;8.85;;;1.70;;
54201;SDS011;40108;53.152;5.844;2022-12-08T08:51:34;6.25;;;1.40;;
54201;SDS011;40108;53.152;5.844;2022-12-08T08:54:00;15.43;;;1.38;;
54201;SDS011;40108;53.152;5.844;2022-12-08T08:56:25;11.45;;;1.92;;
54201;SDS011;40108;53.152;5.844;2022-12-08T08:58:51;7.28;;;1.30;;
54201;SDS011;40108;53.152;5.844;2022-12-08T09:01:18;3.70;;;1.15;;
54201;SDS011;40108;53.152;5.844;2022-12-08T09:03:49;8.57;;;1.40;;
54201;SDS011;40108;53.152;5.844;2022-12-08T09:06:15;8.95;;;1.30;;
54201;SDS011;40108;53.152;5.844;2022-12-08T09:08:42;5.82;;;1.83;;
54201;SDS011;40108;53.152;5.844;2022-12-08T09:11:08;8.63;;;1.95;;
54201;SDS011;40108;53.152;5.844;2022-12-08T09:13:34;9.43;;;2.30;;
54201;SDS011;40108;53.152;5.844;2022-12-08T09:16:00;7.15;;;1.65;;
54201;SDS011;40108;53.152;5.844;2022-12-08T09:18:27;9.30;;;3.90;;
54201;SDS011;40108;53.152;5.844;2022-12-08T09:20:53;13.75;;;4.03;;
54201;SDS011;40108;53.152;5.844;2022-12-08T09:23:19;9.40;;;2.75;;
54201;SDS011;40108;53.152;5.844;2022-12-08T09:25:45;9.65;;;2.20;;
54201;SDS011;40108;53.152;5.844;2022-12-08T09:28:11;8.52;;;2.30;;
54201;SDS011;40108;53.152;5.844;2022-12-08T09:30:37;6.07;;;1.40;;
54201;SDS011;40108;53.152;5.844;2022-12-08T09:33:03;11.05;;;1.80;;
54201;SDS011;40108;53.152;5.844;2022-12-08T09:35:28;10.90;;;1.52;;
54201;SDS011;40108;53.152;5.844;2022-12-08T09:37:54;8.90;;;1.35;;
54201;SDS011;40108;53.152;5.844;2022-12-08T09:40:21;4.60;;;1.20;;
54201;SDS011;40108;53.152;5.844;2022-12-08T09:42:56;6.32;;;0.90;;
54201;SDS011;40108;53.152;5.844;2022-12-08T09:45:34;7.60;;;0.90;;
54201;SDS011;40108;53.152;5.844;2022-12-08T09:48:10;10.70;;;1.38;;
54201;SDS011;40108;53.152;5.844;2022-12-08T09:50:47;7.80;;;1.55;;
54201;SDS011;40108;53.152;5.844;2022-12-08T09:53:38;4.00;;;1.38;;
54201;SDS011;40108;53.152;5.844;2022-12-08T09:56:14;7.22;;;1.42;;
54201;SDS011;40108;53.152;5.844;2022-12-08T10:01:22;6.28;;;1.15;;
54201;SDS011;40108;53.152;5.844;2022-12-08T10:03:51;6.68;;;1.10;;
54201;SDS011;40108;53.152;5.844;2022-12-08T10:11:42;5.15;;;1.08;;
54201;SDS011;40108;53.152;5.844;2022-12-08T10:16:50;4.78;;;1.08;;
54201;SDS011;40108;53.152;5.844;2022-12-08T10:19:22;7.50;;;1.85;;
54201;SDS011;40108;53.152;5.844;2022-12-08T10:21:51;10.10;;;2.60;;
54201;SDS011;40108;53.152;5.844;2022-12-08T10:24:21;9.43;;;2.30;;
54201;SDS011;40108;53.152;5.844;2022-12-08T10:26:58;7.60;;;2.55;;
54201;SDS011;40108;53.152;5.844;2022-12-08T10:29:25;8.88;;;2.03;;
54201;SDS011;40108;53.152;5.844;2022-12-08T10:31:51;15.45;;;3.72;;
54201;SDS011;40108;53.152;5.844;2022-12-08T10:34:18;13.80;;;5.05;;
54201;SDS011;40108;53.152;5.844;2022-12-08T10:36:51;19.60;;;5.78;;
54201;SDS011;40108;53.152;5.844;2022-12-08T10:39:34;16.08;;;6.07;;
54201;SDS011;40108;53.152;5.844;2022-12-08T10:42:15;11.55;;;3.60;;
54201;SDS011;40108;53.152;5.844;2022-12-08T10:44:53;6.78;;;1.33;;
54201;SDS011;40108;53.152;5.844;2022-12-08T10:47:23;13.18;;;4.10;;
54201;SDS011;40108;53.152;5.844;2022-12-08T10:53:09;7.18;;;1.98;;
54201;SDS011;40108;53.152;5.844;2022-12-08T10:55:50;7.25;;;1.52;;
54201;SDS011;40108;53.152;5.844;2022-12-08T10:58:27;7.00;;;1.73;;
54201;SDS011;40108;53.152;5.844;2022-12-08T11:01:05;12.05;;;1.63;;
54201;SDS011;40108;53.152;5.844;2022-12-08T11:03:51;5.85;;;1.75;;
54201;SDS011;40108;53.152;5.844;2022-12-08T11:06:24;8.82;;;1.25;;
54201;SDS011;40108;53.152;5.844;2022-12-08T11:08:51;3.35;;;1.17;;
54201;SDS011;40108;53.152;5.844;2022-12-08T11:11:19;8.25;;;1.02;;
54201;SDS011;40108;53.152;5.844;2022-12-08T11:13:46;6.65;;;1.10;;
54201;SDS011;40108;53.152;5.844;2022-12-08T11:16:14;5.80;;;1.00;;
54201;SDS011;40108;53.152;5.844;2022-12-08T11:18:42;6.32;;;1.08;;
54201;SDS011;40108;53.152;5.844;2022-12-08T11:21:18;5.03;;;1.05;;
54201;SDS011;40108;53.152;5.844;2022-12-08T11:23:48;10.27;;;3.35;;
54201;SDS011;40108;53.152;5.844;2022-12-08T11:26:17;8.27;;;0.90;;
54201;SDS011;40108;53.152;5.844;2022-12-08T11:28:52;4.65;;;2.15;;
54201;SDS011;40108;53.152;5.844;2022-12-08T11:33:51;3.13;;;0.90;;
54201;SDS011;40108;53.152;5.844;2022-12-08T11:36:17;9.40;;;2.65;;
54201;SDS011;40108;53.152;5.844;2022-12-08T11:38:47;7.25;;;1.17;;
54201;SDS011;40108;53.152;5.844;2022-12-08T11:41:17;5.45;;;1.48;;
54201;SDS011;40108;53.152;5.844;2022-12-08T11:46:33;9.43;;;1.13;;
54201;SDS011;40108;53.152;5.844;2022-12-08T11:49:04;3.55;;;1.02;;
54201;SDS011;40108;53.152;5.844;2022-12-08T11:54:22;8.85;;;1.30;;
54201;SDS011;40108;53.152;5.844;2022-12-08T11:56:55;10.50;;;1.48;;
54201;SDS011;40108;53.152;5.844;2022-12-08T12:02:04;5.28;;;1.05;;
54201;SDS011;40108;53.152;5.844;2022-12-08T12:04:37;3.65;;;1.20;;
54201;SDS011;40108;53.152;5.844;2022-12-08T12:07:18;10.45;;;1.42;;
54201;SDS011;40108;53.152;5.844;2022-12-08T12:20:38;1.35;;;0.30;;
54201;SDS011;40108;53.152;5.844;2022-12-08T12:23:22;1.63;;;0.32;;
54201;SDS011;40108;53.152;5.844;2022-12-08T12:26:08;3.95;;;0.57;;
54201;SDS011;40108;53.152;5.844;2022-12-08T12:29:00;8.35;;;1.05;;
54201;SDS011;40108;53.152;5.844;2022-12-08T12:31:46;4.20;;;1.33;;
54201;SDS011;40108;53.152;5.844;2022-12-08T12:34:26;4.97;;;0.93;;
54201;SDS011;40108;53.152;5.844;2022-12-08T12:37:07;2.47;;;1.15;;
54201;SDS011;40108;53.152;5.844;2022-12-08T12:39:57;6.43;;;1.10;;
54201;SDS011;40108;53.152;5.844;2022-12-08T12:45:33;3.75;;;1.00;;
54201;SDS011;40108;53.152;5.844;2022-12-08T12:55:56;4.07;;;1.17;;
54201;SDS011;40108;53.152;5.844;2022-12-08T13:01:34;8.32;;;2.28;;
54201;SDS011;40108;53.152;5.844;2022-12-08T13:06:36;4.32;;;2.10;;
54201;SDS011;40108;53.152;5.844;2022-12-08T13:09:05;5.43;;;0.57;;
54201;SDS011;40108;53.152;5.844;2022-12-08T13:11:46;5.43;;;0.93;;
54201;SDS011;40108;53.152;5.844;2022-12-08T13:14:26;2.22;;;0.35;;
54201;SDS011;40108;53.152;5.844;2022-12-08T13:16:53;4.43;;;0.60;;
54201;SDS011;40108;53.152;5.844;2022-12-08T13:19:21;4.32;;;0.47;;
54201;SDS011;40108;53.152;5.844;2022-12-08T13:21:47;4.78;;;1.17;;
54201;SDS011;40108;53.152;5.844;2022-12-08T13:24:13;4.75;;;0.63;;
54201;SDS011;40108;53.152;5.844;2022-12-08T13:26:49;2.33;;;0.63;;
54201;SDS011;40108;53.152;5.844;2022-12-08T13:29:16;3.63;;;0.77;;
54201;SDS011;40108;53.152;5.844;2022-12-08T13:31:53;1.60;;;0.55;;
54201;SDS011;40108;53.152;5.844;2022-12-08T13:44:45;4.30;;;0.63;;
54201;SDS011;40108;53.152;5.844;2022-12-08T13:52:47;3.95;;;0.60;;
54201;SDS011;40108;53.152;5.844;2022-12-08T14:01:05;3.20;;;0.57;;
54201;SDS011;40108;53.152;5.844;2022-12-08T14:03:50;2.92;;;0.52;;
54201;SDS011;40108;53.152;5.844;2022-12-08T14:06:27;2.05;;;0.55;;
54201;SDS011;40108;53.152;5.844;2022-12-08T14:08:59;2.88;;;0.73;;
54201;SDS011;40108;53.152;5.844;2022-12-08T14:11:30;3.22;;;0.98;;
54201;SDS011;40108;53.152;5.844;2022-12-08T14:14:04;3.22;;;1.00;;
54201;SDS011;40108;53.152;5.844;2022-12-08T14:16:52;3.28;;;0.50;;
54201;SDS011;40108;53.152;5.844;2022-12-08T14:19:21;1.10;;;0.50;;
54201;SDS011;40108;53.152;5.844;2022-12-08T14:21:50;2.28;;;0.70;;
54201;SDS011;40108;53.152;5.844;2022-12-08T14:24:21;3.90;;;0.85;;
54201;SDS011;40108;53.152;5.844;2022-12-08T14:26:48;4.20;;;1.20;;
54201;SDS011;40108;53.152;5.844;2022-12-08T14:32:17;5.32;;;1.60;;
54201;SDS011;40108;53.152;5.844;2022-12-08T14:34:43;2.63;;;0.63;;
54201;SDS011;40108;53.152;5.844;2022-12-08T14:37:11;11.55;;;8.40;;
54201;SDS011;40108;53.152;5.844;2022-12-08T14:39:38;10.25;;;6.60;;
54201;SDS011;40108;53.152;5.844;2022-12-08T14:42:04;7.60;;;5.63;;
54201;SDS011;40108;53.152;5.844;2022-12-08T14:44:31;9.55;;;5.32;;
54201;SDS011;40108;53.152;5.844;2022-12-08T14:47:06;8.02;;;4.57;;
54201;SDS011;40108;53.152;5.844;2022-12-08T14:49:34;10.43;;;5.30;;
54201;SDS011;40108;53.152;5.844;2022-12-08T14:52:07;9.55;;;5.65;;
54201;SDS011;40108;53.152;5.844;2022-12-08T14:54:37;13.05;;;6.50;;
54201;SDS011;40108;53.152;5.844;2022-12-08T14:57:04;11.65;;;8.30;;
54201;SDS011;40108;53.152;5.844;2022-12-08T14:59:34;13.35;;;8.93;;
54201;SDS011;40108;53.152;5.844;2022-12-08T15:02:10;12.18;;;8.45;;
54201;SDS011;40108;53.152;5.844;2022-12-08T15:04:54;10.90;;;7.60;;
54201;SDS011;40108;53.152;5.844;2022-12-08T15:07:27;13.85;;;8.60;;
54201;SDS011;40108;53.152;5.844;2022-12-08T15:12:39;11.13;;;6.55;;
54201;SDS011;40108;53.152;5.844;2022-12-08T15:15:21;10.93;;;5.78;;
54201;SDS011;40108;53.152;5.844;2022-12-08T15:20:40;12.02;;;6.15;;
54201;SDS011;40108;53.152;5.844;2022-12-08T15:23:24;11.50;;;6.10;;
54201;SDS011;40108;53.152;5.844;2022-12-08T15:25:55;9.18;;;6.03;;
54201;SDS011;40108;53.152;5.844;2022-12-08T15:28:23;13.68;;;6.35;;
54201;SDS011;40108;53.152;5.844;2022-12-08T15:30:50;10.07;;;6.93;;
54201;SDS011;40108;53.152;5.844;2022-12-08T15:33:17;20.92;;;9.75;;
54201;SDS011;40108;53.152;5.844;2022-12-08T15:35:42;27.10;;;13.20;;
54201;SDS011;40108;53.152;5.844;2022-12-08T15:38:27;24.10;;;11.02;;
54201;SDS011;40108;53.152;5.844;2022-12-08T15:40:53;19.08;;;9.57;;
54201;SDS011;40108;53.152;5.844;2022-12-08T15:43:20;14.02;;;7.30;;
54201;SDS011;40108;53.152;5.844;2022-12-08T15:45:46;12.63;;;4.93;;
54201;SDS011;40108;53.152;5.844;2022-12-08T15:51:08;7.32;;;4.15;;
54201;SDS011;40108;53.152;5.844;2022-12-08T15:53:34;5.47;;;2.50;;
54201;SDS011;40108;53.152;5.844;2022-12-08T15:55:59;3.55;;;2.78;;
54201;SDS011;40108;53.152;5.844;2022-12-08T15:58:30;4.93;;;2.78;;
54201;SDS011;40108;53.152;5.844;2022-12-08T16:00:56;9.23;;;3.00;;
54201;SDS011;40108;53.152;5.844;2022-12-08T16:03:25;6.90;;;2.17;;
54201;SDS011;40108;53.152;5.844;2022-12-08T16:05:52;7.45;;;2.20;;
54201;SDS011;40108;53.152;5.844;2022-12-08T16:08:19;3.30;;;1.75;;
54201;SDS011;40108;53.152;5.844;2022-12-08T16:10:45;3.97;;;2.00;;
54201;SDS011;40108;53.152;5.844;2022-12-08T16:13:15;4.45;;;2.40;;
54201;SDS011;40108;53.152;5.844;2022-12-08T16:16:00;4.20;;;2.00;;
54201;SDS011;40108;53.152;5.844;2022-12-08T16:18:35;5.60;;;2.53;;
54201;SDS011;40108;53.152;5.844;2022-12-08T16:21:02;6.10;;;2.70;;
54201;SDS011;40108;53.152;5.844;2022-12-08T16:23:29;10.30;;;4.63;;
54201;SDS011;40108;53.152;5.844;2022-12-08T16:25:55;10.95;;;5.13;;
54201;SDS011;40108;53.152;5.844;2022-12-08T16:28:21;10.18;;;5.43;;
54201;SDS011;40108;53.152;5.844;2022-12-08T16:30:47;9.60;;;5.25;;
54201;SDS011;40108;53.152;5.844;2022-12-08T16:33:13;15.32;;;7.35;;
54201;SDS011;40108;53.152;5.844;2022-12-08T16:35:39;10.95;;;6.05;;
54201;SDS011;40108;53.152;5.844;2022-12-08T16:38:06;12.65;;;6.32;;
54201;SDS011;40108;53.152;5.844;2022-12-08T16:40:32;12.50;;;6.63;;
54201;SDS011;40108;53.152;5.844;2022-12-08T16:43:18;9.98;;;5.72;;
54201;SDS011;40108;53.152;5.844;2022-12-08T16:45:43;9.63;;;4.35;;
54201;SDS011;40108;53.152;5.844;2022-12-08T16:48:09;8.27;;;3.83;;